createdAt,value
2023-01-22T00:00:06.019Z,5.73
2023-01-22T00:02:36.172Z,4.37
2023-01-22T00:05:04.012Z,3.83
2023-01-22T00:07:30.737Z,4.23
2023-01-22T00:09:57.372Z,4.37
2023-01-22T00:12:24.146Z,5.27
2023-01-22T00:14:50.994Z,4.30
2023-01-22T00:17:17.720Z,6.03
2023-01-22T00:19:44.495Z,5.33
2023-01-22T00:22:12.222Z,4.37
2023-01-22T00:24:41.754Z,4.13
2023-01-22T00:27:08.348Z,4.50
2023-01-22T00:29:35.147Z,4.07
2023-01-22T00:32:02.360Z,4.80
2023-01-22T00:34:29.135Z,4.17
2023-01-22T00:36:56.202Z,4.70
2023-01-22T00:40:35.564Z,4.63
2023-01-22T00:43:07.787Z,5.03
2023-01-22T00:45:34.443Z,4.37
2023-01-22T00:48:01.306Z,4.10
2023-01-22T00:57:40.792Z,4.67
2023-01-22T01:00:08.435Z,4.13
2023-01-22T01:02:55.454Z,4.17
2023-01-22T01:05:22.983Z,4.67
2023-01-22T01:07:49.696Z,4.97
2023-01-22T01:10:16.886Z,3.33
2023-01-22T01:12:46.942Z,4.93
2023-01-22T01:15:16.410Z,3.37
2023-01-22T01:17:43.187Z,3.60
2023-01-22T01:20:11.503Z,3.67
2023-01-22T01:22:57.142Z,3.73
2023-01-22T01:25:26.865Z,3.50
2023-01-22T01:27:55.175Z,3.90
2023-01-22T01:30:21.903Z,3.67
2023-01-22T01:32:49.462Z,3.67
2023-01-22T01:35:16.224Z,3.77
2023-01-22T01:37:42.838Z,3.93
2023-01-22T01:40:10.036Z,4.07
2023-01-22T01:42:39.650Z,3.60
2023-01-22T01:45:26.683Z,4.47
2023-01-22T01:47:57.335Z,4.70
2023-01-22T01:50:28.660Z,4.47
2023-01-22T01:52:56.841Z,4.90
2023-01-22T01:55:30.494Z,4.43
2023-01-22T01:58:01.020Z,5.57
2023-01-22T02:00:31.428Z,5.33
2023-01-22T02:02:58.953Z,4.90
2023-01-22T02:05:26.193Z,4.67
2023-01-22T02:07:52.847Z,5.10
2023-01-22T02:10:19.913Z,6.33
2023-01-22T02:12:46.691Z,5.30
2023-01-22T02:15:13.866Z,5.57
2023-01-22T02:17:40.676Z,5.20
2023-01-22T02:20:07.628Z,4.80
2023-01-22T02:22:36.686Z,5.17
2023-01-22T02:25:03.479Z,5.40
2023-01-22T02:27:30.118Z,5.73
2023-01-22T02:29:56.881Z,5.97
2023-01-22T02:32:23.530Z,5.03
2023-01-22T02:34:50.179Z,5.43
2023-01-22T02:37:16.997Z,5.37
2023-01-22T02:39:43.668Z,5.53
2023-01-22T02:42:10.492Z,4.77
2023-01-22T02:44:37.147Z,5.13
2023-01-22T02:47:04.114Z,4.63
2023-01-22T02:49:31.783Z,5.13
2023-01-22T02:51:58.620Z,4.77
2023-01-22T02:54:25.477Z,4.97
2023-01-22T02:56:52.064Z,5.30
2023-01-22T02:59:18.737Z,5.10
2023-01-22T03:01:45.452Z,4.83
2023-01-22T03:04:12.133Z,4.83
2023-01-22T03:06:43.207Z,4.93
2023-01-22T03:09:11.036Z,5.13
2023-01-22T03:11:38.822Z,5.60
2023-01-22T03:14:25.302Z,4.80
2023-01-22T03:17:11.115Z,5.63
2023-01-22T03:19:56.459Z,5.33
2023-01-22T03:22:23.857Z,4.83
2023-01-22T03:24:52.071Z,4.30
2023-01-22T03:27:20.730Z,5.90
2023-01-22T03:29:47.352Z,5.77
2023-01-22T03:32:14.290Z,4.77
2023-01-22T03:34:41.031Z,5.20
2023-01-22T03:37:08.848Z,5.53
2023-01-22T03:39:35.525Z,5.83
2023-01-22T03:42:02.149Z,5.27
2023-01-22T03:44:28.841Z,5.27
2023-01-22T03:46:55.473Z,5.90
2023-01-22T03:49:22.180Z,5.50
2023-01-22T03:51:48.841Z,4.97
2023-01-22T03:54:16.608Z,5.10
2023-01-22T03:56:43.459Z,5.20
2023-01-22T03:59:10.760Z,4.13
2023-01-22T04:01:37.428Z,4.93
2023-01-22T04:04:04.321Z,4.73
2023-01-22T04:06:31.004Z,4.50
2023-01-22T04:08:57.702Z,5.10
2023-01-22T04:11:24.678Z,4.70
2023-01-22T04:13:51.328Z,5.23
2023-01-22T04:16:18.164Z,5.67
2023-01-22T04:18:44.876Z,5.17
2023-01-22T04:21:11.576Z,5.57
2023-01-22T04:23:38.201Z,4.83
2023-01-22T04:26:04.981Z,4.77
2023-01-22T04:28:31.635Z,4.97
2023-01-22T04:30:58.369Z,5.27
2023-01-22T04:33:26.182Z,5.17
2023-01-22T04:35:54.626Z,5.50
2023-01-22T04:38:21.360Z,5.30
2023-01-22T04:40:48.245Z,5.93
2023-01-22T04:43:14.913Z,5.40
2023-01-22T04:45:41.637Z,5.60
2023-01-22T04:48:09.261Z,5.50
2023-01-22T04:50:36.003Z,5.40
2023-01-22T04:53:03.091Z,5.73
2023-01-22T04:55:30.225Z,6.07
2023-01-22T04:57:57.893Z,6.13
2023-01-22T05:00:25.621Z,4.80
2023-01-22T05:02:59.426Z,5.97
2023-01-22T05:05:27.625Z,6.00
2023-01-22T05:07:55.074Z,6.03
2023-01-22T05:10:22.408Z,5.70
2023-01-22T05:12:49.318Z,5.37
2023-01-22T05:15:23.990Z,5.53
2023-01-22T05:17:50.915Z,6.53
2023-01-22T05:20:17.884Z,5.43
2023-01-22T05:22:44.699Z,5.67
2023-01-22T05:25:11.403Z,5.80
2023-01-22T05:27:38.013Z,4.90
2023-01-22T05:30:05.942Z,5.83
2023-01-22T05:32:32.823Z,5.20
2023-01-22T05:34:59.440Z,5.77
2023-01-22T05:37:26.027Z,5.57
2023-01-22T05:39:52.704Z,4.90
2023-01-22T05:42:19.433Z,5.67
2023-01-22T05:44:46.021Z,5.63
2023-01-22T05:47:13.635Z,4.83
2023-01-22T05:49:40.505Z,5.07
2023-01-22T05:52:10.690Z,5.43
2023-01-22T05:54:38.857Z,5.30
2023-01-22T05:57:05.807Z,5.17
2023-01-22T05:59:32.417Z,5.77
2023-01-22T06:01:59.083Z,5.07
2023-01-22T06:04:25.821Z,4.77
2023-01-22T06:06:52.544Z,5.00
2023-01-22T06:09:19.197Z,4.73
2023-01-22T06:11:45.924Z,4.87
2023-01-22T06:14:12.496Z,5.80
2023-01-22T06:16:39.166Z,4.43
2023-01-22T06:19:06.114Z,4.97
2023-01-22T06:21:32.713Z,4.30
2023-01-22T06:23:59.339Z,4.67
2023-01-22T06:26:25.973Z,4.60
2023-01-22T06:28:53.024Z,4.40
2023-01-22T06:31:19.790Z,4.00
2023-01-22T06:33:46.504Z,5.27
2023-01-22T06:36:13.251Z,4.70
2023-01-22T06:38:42.652Z,5.17
2023-01-22T06:41:09.802Z,4.20
2023-01-22T06:43:37.636Z,4.83
2023-01-22T06:46:05.032Z,4.30
2023-01-22T06:48:31.918Z,4.67
2023-01-22T06:50:59.988Z,4.13
2023-01-22T06:53:27.342Z,3.80
2023-01-22T06:55:54.500Z,4.03
2023-01-22T06:58:21.267Z,4.00
2023-01-22T07:00:48.085Z,3.80
2023-01-22T07:03:15.905Z,3.93
2023-01-22T07:05:42.697Z,3.73
2023-01-22T07:08:13.634Z,3.57
2023-01-22T07:10:40.333Z,3.40
2023-01-22T07:13:09.063Z,3.33
2023-01-22T07:15:35.959Z,2.83
2023-01-22T07:18:02.742Z,3.73
2023-01-22T07:20:29.521Z,3.50
2023-01-22T07:22:59.195Z,3.70
2023-01-22T07:25:27.399Z,3.10
2023-01-22T07:28:01.614Z,3.50
2023-01-22T07:30:28.674Z,3.67
2023-01-22T07:32:59.626Z,2.93
2023-01-22T07:35:26.953Z,3.07
2023-01-22T07:37:55.158Z,3.07
2023-01-22T07:40:24.256Z,3.37
2023-01-22T07:42:51.972Z,3.33
2023-01-22T07:45:19.437Z,2.97
2023-01-22T07:47:58.849Z,3.13
2023-01-22T07:50:30.805Z,2.87
2023-01-22T07:52:57.890Z,2.77
2023-01-22T07:55:24.698Z,2.80
2023-01-22T07:58:17.672Z,3.30
2023-01-22T08:00:44.557Z,2.90
2023-01-22T08:03:11.357Z,3.20
2023-01-22T08:05:42.429Z,3.20
2023-01-22T08:08:14.578Z,3.20
2023-01-22T08:10:41.863Z,2.90
2023-01-22T08:13:08.876Z,2.63
2023-01-22T08:15:35.737Z,2.87
2023-01-22T08:18:02.599Z,2.73
2023-01-22T08:20:29.310Z,2.50
2023-01-22T08:23:00.243Z,2.73
2023-01-22T08:25:28.055Z,2.63
2023-01-22T08:27:55.061Z,2.70
2023-01-22T08:30:26.082Z,2.80
2023-01-22T08:32:53.599Z,2.60
2023-01-22T08:35:21.738Z,2.73
2023-01-22T08:37:48.601Z,3.07
2023-01-22T08:40:15.826Z,2.80
2023-01-22T08:42:42.800Z,3.20
2023-01-22T08:45:10.044Z,3.13
2023-01-22T08:47:36.720Z,3.00
2023-01-22T08:50:04.072Z,2.80
2023-01-22T08:52:30.961Z,3.47
2023-01-22T08:54:57.775Z,3.10
2023-01-22T08:57:24.468Z,3.40
2023-01-22T09:00:00.744Z,3.23
2023-01-22T09:02:28.281Z,3.30
2023-01-22T09:04:55.110Z,3.83
2023-01-22T09:07:21.824Z,3.60
2023-01-22T09:09:48.535Z,4.63
2023-01-22T09:12:15.143Z,3.97
2023-01-22T09:14:41.862Z,4.37
2023-01-22T09:17:08.855Z,4.13
2023-01-22T09:19:35.574Z,5.07
2023-01-22T09:22:06.616Z,5.90
2023-01-22T09:24:33.800Z,4.87
2023-01-22T09:27:00.521Z,4.33
2023-01-22T09:29:27.302Z,5.20
2023-01-22T09:31:54.066Z,5.10
2023-01-22T09:34:20.749Z,5.23
2023-01-22T09:36:47.451Z,4.40
2023-01-22T09:39:14.263Z,5.30
2023-01-22T09:41:43.475Z,4.77
2023-01-22T09:44:34.487Z,4.33
2023-01-22T09:47:12.896Z,5.03
2023-01-22T09:50:04.610Z,4.33
2023-01-22T09:52:34.096Z,5.37
2023-01-22T09:55:01.034Z,5.47
2023-01-22T09:57:32.218Z,5.10
2023-01-22T09:59:59.847Z,5.47
2023-01-22T10:02:31.306Z,4.80
2023-01-22T10:05:01.846Z,4.03
2023-01-22T10:07:36.855Z,5.37
2023-01-22T10:12:44.783Z,6.33
2023-01-22T10:15:15.490Z,5.90
2023-01-22T10:17:42.502Z,5.20
2023-01-22T10:20:11.139Z,5.33
2023-01-22T10:22:37.948Z,6.27
2023-01-22T10:25:05.163Z,6.90
2023-01-22T10:27:35.487Z,5.30
2023-01-22T10:30:09.474Z,5.47
2023-01-22T10:32:36.186Z,6.32
2023-01-22T10:35:05.771Z,6.93
2023-01-22T10:37:44.532Z,7.13
2023-01-22T10:40:34.379Z,5.80
2023-01-22T10:43:15.654Z,6.20
2023-01-22T10:45:56.937Z,6.93
2023-01-22T10:48:24.479Z,8.60
2023-01-22T10:51:14.420Z,8.33
2023-01-22T10:53:47.636Z,8.83
2023-01-22T10:56:25.444Z,7.57
2023-01-22T10:58:52.324Z,8.80
2023-01-22T11:01:30.091Z,10.47
2023-01-22T11:03:56.918Z,8.77
2023-01-22T11:06:32.809Z,8.03
2023-01-22T11:09:16.727Z,9.13
2023-01-22T11:11:49.859Z,8.75
2023-01-22T11:14:29.968Z,9.70
2023-01-22T11:16:59.283Z,12.83
2023-01-22T11:19:36.877Z,9.30
2023-01-22T11:22:11.898Z,90.20
2023-01-22T11:27:20.445Z,72.30
2023-01-22T11:30:21.132Z,12.43
2023-01-22T11:33:04.106Z,8.57
2023-01-22T11:35:41.764Z,8.27
2023-01-22T11:38:44.056Z,8.07
2023-01-22T11:41:47.587Z,8.00
2023-01-22T11:44:42.576Z,8.40
2023-01-22T11:47:25.018Z,8.80
2023-01-22T11:50:00.902Z,7.00
2023-01-22T11:52:36.518Z,7.20
2023-01-22T11:55:24.576Z,8.07
2023-01-22T11:58:01.740Z,8.47
2023-01-22T12:00:42.524Z,7.90
2023-01-22T12:03:12.121Z,7.57
2023-01-22T12:05:59.590Z,7.53
2023-01-22T12:08:35.306Z,7.77
2023-01-22T12:11:23.880Z,7.47
2023-01-22T12:14:11.899Z,7.40
2023-01-22T12:17:17.061Z,7.73
2023-01-22T12:20:09.951Z,7.50
2023-01-22T12:22:38.410Z,8.07
2023-01-22T12:25:21.269Z,7.67
2023-01-22T12:27:52.449Z,7.63
2023-01-22T12:30:37.016Z,7.53
2023-01-22T12:35:32.722Z,6.87
2023-01-22T12:38:12.901Z,6.87
2023-01-22T12:40:52.591Z,8.23
2023-01-22T12:43:26.927Z,8.07
2023-01-22T12:48:26.703Z,8.17
2023-01-22T12:50:56.222Z,7.87
2023-01-22T12:53:29.983Z,8.30
2023-01-22T12:56:09.706Z,7.75
2023-01-22T12:58:41.005Z,6.67
2023-01-22T13:01:23.318Z,7.53
2023-01-22T13:04:07.131Z,7.40
2023-01-22T13:06:41.573Z,9.02
2023-01-22T13:09:26.267Z,7.83
2023-01-22T13:11:52.956Z,8.03
2023-01-22T13:14:21.681Z,8.83
2023-01-22T13:16:59.550Z,8.03
2023-01-22T13:19:29.094Z,8.37
2023-01-22T13:21:59.790Z,7.90
2023-01-22T13:24:26.379Z,8.50
2023-01-22T13:27:01.138Z,8.73
2023-01-22T13:29:34.021Z,7.93
2023-01-22T13:32:06.355Z,7.87
2023-01-22T13:34:33.005Z,7.60
2023-01-22T13:36:59.843Z,7.47
2023-01-22T13:39:32.391Z,7.20
2023-01-22T13:42:01.493Z,9.17
2023-01-22T13:44:34.381Z,8.27
2023-01-22T13:47:01.660Z,8.23
2023-01-22T13:49:42.801Z,9.23
2023-01-22T13:52:14.567Z,8.57
2023-01-22T13:54:43.711Z,9.13
2023-01-22T13:57:16.102Z,8.87
2023-01-22T13:59:53.135Z,9.93
2023-01-22T14:02:21.965Z,10.17
2023-01-22T14:04:49.174Z,8.97
2023-01-22T14:07:27.542Z,9.27
2023-01-22T14:09:55.261Z,8.67
2023-01-22T14:12:26.907Z,9.40
2023-01-22T14:14:54.206Z,8.90
2023-01-22T14:17:24.739Z,8.77
2023-01-22T14:19:51.778Z,8.73
2023-01-22T14:22:18.688Z,9.87
2023-01-22T14:24:45.375Z,10.00
2023-01-22T14:27:11.993Z,8.83
2023-01-22T14:29:38.777Z,8.97
2023-01-22T14:32:05.462Z,9.93
2023-01-22T14:34:32.099Z,9.80
2023-01-22T14:36:58.765Z,9.13
2023-01-22T14:39:25.562Z,11.40
2023-01-22T14:41:52.221Z,8.17
2023-01-22T14:44:19.055Z,10.10
2023-01-22T14:46:45.883Z,9.03
2023-01-22T14:49:12.691Z,8.53
2023-01-22T14:51:39.426Z,9.83
2023-01-22T14:54:06.077Z,10.63
2023-01-22T14:56:32.709Z,10.80
2023-01-22T14:58:59.397Z,9.43
2023-01-22T15:01:28.232Z,9.87
2023-01-22T15:03:54.850Z,9.73
2023-01-22T15:06:21.482Z,8.80
2023-01-22T15:08:48.120Z,9.60
2023-01-22T15:11:14.790Z,9.87
2023-01-22T15:13:44.287Z,10.97
2023-01-22T15:16:11.407Z,9.73
2023-01-22T15:18:38.636Z,9.53
2023-01-22T15:21:06.007Z,10.37
2023-01-22T15:23:33.947Z,9.73
2023-01-22T15:26:03.543Z,10.47
2023-01-22T15:28:30.759Z,10.13
2023-01-22T15:31:01.464Z,9.10
2023-01-22T15:33:28.225Z,10.40
2023-01-22T15:35:54.955Z,13.00
2023-01-22T15:38:21.753Z,10.40
2023-01-22T15:40:51.666Z,12.23
2023-01-22T15:43:18.277Z,10.23
2023-01-22T15:45:44.906Z,11.03
2023-01-22T15:48:13.923Z,9.90
2023-01-22T15:50:41.630Z,10.27
2023-01-22T15:53:08.334Z,10.73
2023-01-22T15:55:35.555Z,11.87
2023-01-22T15:58:02.319Z,11.10
2023-01-22T16:00:29.348Z,9.80
2023-01-22T16:02:56.078Z,10.10
2023-01-22T16:05:25.928Z,10.50
2023-01-22T16:07:52.765Z,10.17
2023-01-22T16:10:20.172Z,11.83
2023-01-22T16:12:46.970Z,11.33
2023-01-22T16:15:13.552Z,9.57
2023-01-22T16:17:40.151Z,9.77
2023-01-22T16:20:07.789Z,10.07
2023-01-22T16:22:34.457Z,10.30
2023-01-22T16:25:01.123Z,9.93
2023-01-22T16:27:27.882Z,10.27
2023-01-22T16:29:54.845Z,10.17
2023-01-22T16:32:21.535Z,11.67
2023-01-22T16:34:48.202Z,11.50
2023-01-22T16:37:14.905Z,9.60
2023-01-22T16:39:41.598Z,10.60
2023-01-22T16:42:08.186Z,11.67
2023-01-22T16:44:35.065Z,10.73
2023-01-22T16:47:01.767Z,9.90
2023-01-22T16:49:30.465Z,9.93
2023-01-22T16:52:00.272Z,10.70
2023-01-22T16:54:34.899Z,9.43
2023-01-22T16:57:06.131Z,11.20
2023-01-22T16:59:36.881Z,10.57
2023-01-22T17:02:05.241Z,10.13
2023-01-22T17:04:31.893Z,10.13
2023-01-22T17:06:59.549Z,8.93
2023-01-22T17:09:28.704Z,10.47
2023-01-22T17:11:58.253Z,9.10
2023-01-22T17:14:27.081Z,9.17
2023-01-22T17:16:53.855Z,8.20
2023-01-22T17:19:20.499Z,7.93
2023-01-22T17:21:49.712Z,8.70
2023-01-22T17:24:16.343Z,9.20
2023-01-22T17:26:42.962Z,9.60
2023-01-22T17:29:10.335Z,10.33
2023-01-22T17:31:37.991Z,8.80
2023-01-22T17:34:08.752Z,9.73
2023-01-22T17:36:35.690Z,9.87
2023-01-22T17:39:04.678Z,10.33
2023-01-22T17:41:31.575Z,10.83
2023-01-22T17:43:58.869Z,10.33
2023-01-22T17:46:31.961Z,11.00
2023-01-22T17:49:01.098Z,10.63
2023-01-22T17:51:28.822Z,10.37
2023-01-22T17:53:56.908Z,10.57
2023-01-22T17:56:26.397Z,11.77
2023-01-22T17:58:57.473Z,10.77
2023-01-22T18:01:27.923Z,9.70
2023-01-22T18:03:57.533Z,10.33
2023-01-22T18:06:24.829Z,10.37
2023-01-22T18:08:51.563Z,10.43
2023-01-22T18:11:20.466Z,9.50
2023-01-22T18:13:47.724Z,10.43
2023-01-22T18:16:16.494Z,10.20
2023-01-22T18:18:43.892Z,8.83
2023-01-22T18:21:16.625Z,9.10
2023-01-22T18:23:44.207Z,9.30
2023-01-22T18:26:11.015Z,9.03
2023-01-22T18:28:41.596Z,9.97
2023-01-22T18:31:11.598Z,9.70
2023-01-22T18:33:39.361Z,10.13
2023-01-22T18:36:12.275Z,9.57
2023-01-22T18:38:39.861Z,9.33
2023-01-22T18:41:10.389Z,8.60
2023-01-22T18:43:38.286Z,8.90
2023-01-22T18:46:12.387Z,8.67
2023-01-22T18:48:40.229Z,8.27
2023-01-22T18:51:09.184Z,9.23
2023-01-22T18:53:36.408Z,9.07
2023-01-22T18:56:05.100Z,8.43
2023-01-22T18:58:33.883Z,8.70
2023-01-22T19:01:12.395Z,9.70
2023-01-22T19:03:41.215Z,9.10
2023-01-22T19:06:13.948Z,8.67
2023-01-22T19:08:46.150Z,8.73
2023-01-22T19:11:14.054Z,8.07
2023-01-22T19:13:42.013Z,8.47
2023-01-22T19:16:10.990Z,8.47
2023-01-22T19:18:42.301Z,7.47
2023-01-22T19:21:12.472Z,9.80
2023-01-22T19:23:39.156Z,8.77
2023-01-22T19:26:15.666Z,9.40
2023-01-22T19:28:42.755Z,6.97
2023-01-22T19:31:17.963Z,7.23
2023-01-22T19:33:45.457Z,7.73
2023-01-22T19:36:12.430Z,7.20
2023-01-22T19:38:40.500Z,7.57
2023-01-22T19:41:08.785Z,8.30
2023-01-22T19:43:35.909Z,8.17
2023-01-22T19:46:09.482Z,7.27
2023-01-22T19:48:36.714Z,8.07
2023-01-22T19:51:08.051Z,8.03
2023-01-22T19:53:35.101Z,7.97
2023-01-22T19:56:02.187Z,7.57
2023-01-22T19:58:28.909Z,7.40
2023-01-22T20:00:58.124Z,6.93
2023-01-22T20:03:26.408Z,8.03
2023-01-22T20:05:53.178Z,8.33
2023-01-22T20:08:22.104Z,7.47
2023-01-22T20:10:58.205Z,8.50
2023-01-22T20:13:24.818Z,6.83
2023-01-22T20:15:52.829Z,7.80
2023-01-22T20:18:19.984Z,7.63
2023-01-22T20:20:57.521Z,7.60
2023-01-22T20:23:26.173Z,8.27
2023-01-22T20:25:53.028Z,8.17
2023-01-22T20:28:19.956Z,8.37
2023-01-22T20:30:57.310Z,8.20
2023-01-22T20:33:28.143Z,7.33
2023-01-22T20:35:56.436Z,7.73
2023-01-22T20:38:23.397Z,7.63
2023-01-22T20:40:50.389Z,8.43
2023-01-22T20:43:17.842Z,7.37
2023-01-22T20:45:44.679Z,8.30
2023-01-22T20:48:11.348Z,7.37
2023-01-22T20:50:42.034Z,8.47
2023-01-22T20:53:08.722Z,7.40
2023-01-22T20:55:35.530Z,7.90
2023-01-22T20:58:07.367Z,8.93
2023-01-22T21:00:37.108Z,8.37
2023-01-22T21:03:03.994Z,10.10
2023-01-22T21:05:30.864Z,7.90
2023-01-22T21:07:57.515Z,8.50
2023-01-22T21:10:24.326Z,8.93
2023-01-22T21:12:52.925Z,8.17
2023-01-22T21:15:19.575Z,9.23
2023-01-22T21:17:46.640Z,8.87
2023-01-22T21:20:13.425Z,9.33
2023-01-22T21:22:41.922Z,9.57
2023-01-22T21:25:09.033Z,7.87
2023-01-22T21:27:36.756Z,9.03
2023-01-22T21:30:09.130Z,8.97
2023-01-22T21:33:01.150Z,9.17
2023-01-22T21:35:35.136Z,9.40
2023-01-22T21:38:01.936Z,8.65
2023-01-22T21:40:28.686Z,9.33
2023-01-22T21:43:20.020Z,10.00
2023-01-22T21:46:27.908Z,8.82
2023-01-22T21:48:58.308Z,8.85
2023-01-22T21:51:29.335Z,9.10
2023-01-22T21:53:58.389Z,9.10
2023-01-22T21:56:26.484Z,9.80
2023-01-22T21:58:53.191Z,9.70
2023-01-22T22:01:21.612Z,9.10
2023-01-22T22:03:54.453Z,9.70
2023-01-22T22:06:24.420Z,9.37
2023-01-22T22:08:53.929Z,9.77
2023-01-22T22:11:20.552Z,8.87
2023-01-22T22:13:49.847Z,9.73
2023-01-22T22:16:16.570Z,9.40
2023-01-22T22:18:43.220Z,8.53
2023-01-22T22:21:10.455Z,8.73
2023-01-22T22:23:37.390Z,9.00
2023-01-22T22:26:05.175Z,9.67
2023-01-22T22:28:32.886Z,9.20
2023-01-22T22:31:11.868Z,8.97
2023-01-22T22:33:46.802Z,9.13
2023-01-22T22:36:14.730Z,9.70
2023-01-22T22:38:41.648Z,8.10
2023-01-22T22:41:12.499Z,9.47
2023-01-22T22:43:44.111Z,9.57
2023-01-22T22:46:20.214Z,9.37
2023-01-22T22:48:47.447Z,9.70
2023-01-22T22:51:23.175Z,8.40
2023-01-22T22:53:52.499Z,9.93
2023-01-22T22:56:19.155Z,9.93
2023-01-22T22:58:46.417Z,10.37
2023-01-22T23:01:18.055Z,10.93
2023-01-22T23:03:45.094Z,9.87
2023-01-22T23:06:14.224Z,12.00
2023-01-22T23:08:42.791Z,10.70
2023-01-22T23:11:11.285Z,10.27
2023-01-22T23:13:38.655Z,11.93
2023-01-22T23:16:11.552Z,9.30
2023-01-22T23:18:38.332Z,9.57
2023-01-22T23:21:06.418Z,10.20
2023-01-22T23:23:33.478Z,10.40
2023-01-22T23:26:00.660Z,12.00
2023-01-22T23:28:29.619Z,12.00
2023-01-22T23:30:56.378Z,11.33
2023-01-22T23:33:23.063Z,11.73
2023-01-22T23:35:51.297Z,10.47
2023-01-22T23:38:18.021Z,10.73
2023-01-22T23:40:44.650Z,10.33
2023-01-22T23:43:11.397Z,12.03
2023-01-22T23:45:38.943Z,11.70
2023-01-22T23:48:05.735Z,10.13
2023-01-22T23:50:32.390Z,12.50
2023-01-22T23:53:02.714Z,11.10
2023-01-22T23:55:31.426Z,11.40
2023-01-22T23:57:58.189Z,12.67
